Latest Weather Observations for Dwellingup

IDW60801

Issued at 11:03 am WST Tuesday 30 August 2016 (issued every 30 minutes, with the page automatically refreshed every 10 minutes)

About weather observations | Map of weather stations | Latest weather observations for WA | Other Formats
Station Details ID: 009538 Name: DWELLINGUP Lat: -32.71 Lon: 116.06 Height: 267.0 m
Data from the previous 72 hours. | See also: Recent months at Dwellingup
Date/Time
WST
Temp
°C
App
Temp
°C
Dew
Point
°C
Rel
Hum
%
Delta-T
°C
Wind Press
QNH
hPa
Press
MSL
hPa
Rain since
9am
mm
Dir  Spd
km/h
Gust
km/h
Spd
kts
Gust
kts
30/11:00am 13.9 10.2 6.3 60 3.7 NW 15 22 8 12 1016.9 1017.0 0.0
30/10:30am 13.7 10.4 6.6 62 3.5 WNW 13 20 7 11 1017.2 1017.3 0.0
30/10:00am 12.6 10.0 6.0 64 3.2 N 9 17 5 9 1017.3 1017.5 0.0
30/09:30am 11.2 8.9 5.7 69 2.6 NNE 7 15 4 8 1017.5 1017.7 0.0
30/09:00am 10.1 8.5 8.0 87 1.0 ENE 6 13 3 7 1017.6 1017.8 0.0
30/08:30am 7.5 5.4 6.6 94 0.4 ENE 7 15 4 8 1017.7 1017.9 0.0
30/08:00am 5.1 2.1 4.2 94 0.4 ENE 9 15 5 8 1017.7 1017.9 0.0
30/07:30am 4.4 1.3 3.5 94 0.4 E 9 13 5 7 1017.7 1017.9 0.0
30/07:00am 4.0 1.2 3.0 93 0.4 ESE 7 11 4 6 1017.6 1017.8 0.0
30/06:30am 4.2 1.4 3.2 93 0.4 ESE 7 9 4 5 1017.4 1017.6 0.0
30/06:00am 4.4 1.8 3.4 93 0.4 ESE 6 11 3 6 1017.3 1017.5 0.0
30/05:30am 4.2 1.4 3.2 93 0.4 ESE 7 11 4 6 1017.1 1017.2 0.0
30/05:00am 4.0 0.8 3.0 93 0.4 SSE 9 9 5 5 1016.9 1017.0 0.0
30/04:30am 4.0 0.8 3.0 93 0.4 SE 9 11 5 6 1016.7 1016.8 0.0
30/04:00am 3.8 1.5 2.8 93 0.4 SSE 4 7 2 4 1016.5 1016.6 0.0
30/03:30am 3.6 2.0 2.4 92 0.5 CALM 0 0 0 0 1016.6 1016.7 0.0
30/03:00am 3.9 2.3 2.7 92 0.5 CALM 0 0 0 0 1016.7 1016.8 0.0
30/02:30am 4.1 2.6 2.9 92 0.5 CALM 0 0 0 0 1016.8 1016.9 0.0
30/02:00am 4.7 3.3 3.5 92 0.5 CALM 0 0 0 0 1016.9 1017.0 0.0
30/01:30am 5.3 4.0 4.1 92 0.5 CALM 0 0 0 0 1017.2 1017.3 0.0
30/01:00am 5.8 4.6 4.6 92 0.5 CALM 0 0 0 0 1017.4 1017.6 0.0
30/12:30am 6.5 4.1 5.3 92 0.5 ESE 7 9 4 5 1017.3 1017.5 0.0
30/12:00am 6.9 4.6 5.7 92 0.5 E 7 7 4 4 1017.3 1017.5 0.0
 
Date/Time
WST
Temp
°C
App
Temp
°C
Dew
Point
°C
Rel
Hum
%
Delta-T
°C
Wind Press
QNH
hPa
Press
MSL
hPa
Rain since
9am
mm
Dir  Spd
km/h
Gust
km/h
Spd
kts
Gust
kts
29/11:30pm 6.6 4.2 5.4 92 0.5 SE 7 9 4 5 1017.5 1017.7 0.0
29/11:00pm 6.0 3.5 4.8 92 0.5 SE 7 9 4 5 1017.6 1017.8 0.0
29/10:30pm 5.4 2.4 4.1 91 0.6 SE 9 9 5 5 1017.6 1017.8 0.0
29/10:00pm 5.8 2.8 4.3 90 0.6 SSE 9 11 5 6 1017.6 1017.8 0.0
29/09:30pm 6.1 2.8 4.6 90 0.7 S 11 13 6 7 1017.6 1017.8 0.0
29/09:00pm 6.7 3.5 5.0 89 0.8 SSW 11 15 6 8 1017.5 1017.7 0.0
29/08:30pm 7.3 3.8 5.4 88 0.9 SSW 13 19 7 10 1017.4 1017.6 0.0
29/08:00pm 7.8 4.0 5.8 87 0.9 SW 15 20 8 11 1017.2 1017.3 0.0
29/07:30pm 8.3 4.5 5.9 85 1.1 SW 15 20 8 11 1017.0 1017.1 0.0
29/07:00pm 8.8 5.0 5.9 82 1.3 SW 15 20 8 11 1016.6 1016.7 0.0
29/06:30pm 9.8 6.4 5.8 76 1.9 WSW 13 22 7 12 1016.3 1016.4 0.0
29/06:00pm 10.6 7.2 6.0 73 2.2 WSW 13 20 7 11 1016.1 1016.2 0.0
29/05:30pm 11.7 8.7 6.0 68 2.7 SW 11 19 6 10 1015.9 1016.0 0.0
29/05:00pm 12.4 9.4 6.2 66 3.0 SW 11 19 6 10 1015.7 1015.8 0.0
29/04:30pm 12.8 9.8 6.2 64 3.2 WSW 11 19 6 10 1015.4 1015.6 0.0
29/04:00pm 13.2 9.5 6.5 64 3.3 WSW 15 19 8 10 1015.2 1015.4 0.0
29/03:30pm 14.5 11.2 6.6 59 3.9 WSW 13 24 7 13 1015.0 1015.2 0.0
29/03:00pm 13.9 10.5 6.0 59 3.8 SW 13 20 7 11 1015.0 1015.2 0.0
29/02:30pm 14.3 11.1 6.9 61 3.7 WSW 13 20 7 11 1015.0 1015.2 0.0
29/02:00pm 14.2 11.5 7.3 63 3.4 W 11 19 6 10 1014.9 1015.1 0.0
29/01:30pm 13.5 11.0 6.4 62 3.4 WSW 9 17 5 9 1015.0 1015.2 0.0
29/01:00pm 13.2 10.4 6.8 65 3.1 WSW 11 19 6 10 1015.3 1015.5 0.0
29/12:30pm 13.2 10.6 6.3 63 3.3 SW 9 20 5 11 1015.7 1015.8 0.0
29/12:00pm 12.6 9.3 6.4 66 3.0 SSW 13 26 7 14 1016.0 1016.1 0.0
29/11:30am 12.1 9.8 7.4 73 2.3 SW 9 13 5 7 1016.6 1016.7 0.0
29/11:00am 11.7 9.7 6.4 70 2.5 S 6 11 3 6 1016.7 1016.8 0.0
29/10:30am 11.5 8.2 6.2 70 2.5 S 13 19 7 10 1016.7 1016.8 0.0
29/10:00am 11.3 8.0 6.2 71 2.4 S 13 20 7 11 1016.7 1016.8 0.0
29/09:30am 10.8 7.5 6.4 74 2.1 S 13 20 7 11 1016.7 1016.8 0.0
29/09:00am 10.5 7.2 6.5 76 1.9 SSE 13 24 7 13 1016.5 1016.6 0.2
29/08:30am 10.3 7.1 7.0 80 1.6 SSE 13 19 7 10 1016.3 1016.4 0.2
29/08:00am 9.8 6.4 7.7 87 1.0 S 15 26 8 14 1016.3 1016.4 0.2
29/07:30am 9.3 7.4 7.6 89 0.8 SSW 7 11 4 6 1015.9 1016.0 0.2
29/07:00am 9.2 7.4 7.3 88 0.9 SW 6 7 3 4 1015.7 1015.8 0.2
29/06:30am 9.2 8.6 7.2 87 1.0 CALM 0 7 0 4 1015.2 1015.4 0.2
29/06:00am 9.2 6.8 7.0 86 1.0 SSW 9 13 5 7 1015.1 1015.3 0.2
29/05:30am 9.5 7.4 6.8 83 1.3 S 7 11 4 6 1014.8 1015.0 0.2
29/05:00am 9.7 6.9 6.8 82 1.4 S 11 15 6 8 1014.5 1014.7 0.2
29/04:30am 9.5 6.4 7.4 87 1.0 S 13 19 7 10 1014.4 1014.6 0.2
29/04:00am 9.5 6.1 7.8 89 0.8 SSW 15 22 8 12 1014.1 1014.3 0.2
29/03:30am 9.5 6.9 7.9 90 0.8 S 11 17 6 9 1013.8 1013.9 0.2
29/03:00am 9.6 7.4 7.9 89 0.8 S 9 15 5 8 1013.9 1014.0 0.2
29/02:30am 9.4 6.8 7.8 90 0.8 S 11 24 6 13 1013.8 1013.9 0.2
29/02:00am 9.5 6.5 7.9 90 0.8 S 13 20 7 11 1014.0 1014.1 0.2
29/01:30am 9.6 6.6 7.9 89 0.8 SSW 13 19 7 10 1014.0 1014.1 0.2
29/01:00am 9.6 6.6 7.9 89 0.8 SSW 13 17 7 9 1014.0 1014.1 0.2
29/12:30am 9.6 6.2 7.7 88 0.9 SSW 15 20 8 11 1013.9 1014.0 0.2
29/12:00am 9.8 6.8 7.7 87 1.0 SW 13 19 7 10 1013.9 1014.0 0.2
 
Date/Time
WST
Temp
°C
App
Temp
°C
Dew
Point
°C
Rel
Hum
%
Delta-T
°C
Wind Press
QNH
hPa
Press
MSL
hPa
Rain since
9am
mm
Dir  Spd
km/h
Gust
km/h
Spd
kts
Gust
kts
28/11:30pm 10.1 7.1 7.7 85 1.2 SW 13 19 7 10 1014.0 1014.1 0.2
28/11:00pm 10.1 7.1 7.9 86 1.1 SSW 13 24 7 13 1013.9 1014.0 0.2
28/10:30pm 9.9 7.3 7.7 86 1.1 SW 11 17 6 9 1014.1 1014.3 0.2
28/10:00pm 10.2 7.9 7.6 84 1.3 SSW 9 15 5 8 1014.0 1014.1 0.2
28/09:30pm 10.3 7.8 8.2 87 1.0 SW 11 19 6 10 1013.8 1013.9 0.2
28/09:00pm 10.4 7.5 8.3 87 1.0 SSW 13 19 7 10 1013.8 1013.9 0.2
28/08:30pm 10.3 7.5 8.4 88 0.9 SW 13 22 7 12 1013.5 1013.6 0.2
28/08:00pm 10.4 8.0 8.5 88 0.9 SSW 11 17 6 9 1012.9 1013.0 0.0
28/07:30pm 10.3 6.7 8.4 88 0.9 SSW 17 26 9 14 1012.7 1012.8 0.0
28/07:00pm 10.6 6.7 8.5 87 1.0 SSW 19 30 10 16 1012.4 1012.5 0.0
28/06:30pm 10.3 6.7 8.2 87 1.0 SSW 17 28 9 15 1012.0 1012.1 0.0
28/06:00pm 10.6 7.8 8.5 87 1.0 SSW 13 19 7 10 1011.9 1012.0 0.0
28/05:30pm 11.2 8.5 8.9 86 1.2 SSW 13 19 7 10 1011.4 1011.6 0.0
28/05:00pm 11.3 8.3 9.2 87 1.1 SSW 15 20 8 11 1011.2 1011.4 0.0
28/04:30pm 12.8 9.1 8.1 73 2.4 SSW 17 32 9 17 1010.7 1010.8 0.0
28/04:00pm 12.7 9.1 8.2 74 2.3 SSW 17 28 9 15 1010.4 1010.5 0.0
28/03:30pm 13.1 8.4 7.8 70 2.6 SW 22 33 12 18 1010.2 1010.3 0.0
28/03:00pm 13.1 9.7 7.5 69 2.8 SW 15 32 8 17 1009.9 1010.0 0.0
28/02:30pm 13.0 8.6 7.5 69 2.7 SSW 20 39 11 21 1009.8 1009.9 0.0
28/02:00pm 12.5 7.6 7.0 69 2.7 SW 22 41 12 22 1009.7 1009.8 0.0
28/01:30pm 12.2 7.3 6.9 70 2.6 SW 22 39 12 21 1009.7 1009.8 0.0
28/01:00pm 12.5 7.0 7.6 72 2.4 SSW 26 37 14 20 1009.9 1010.0 0.0
28/12:30pm 11.9 6.6 6.8 71 2.5 SSW 24 37 13 20 1010.1 1010.2 0.0
28/12:00pm 11.2 6.5 7.7 79 1.7 SSW 22 37 12 20 1010.4 1010.5 0.0
28/11:30am 11.0 5.8 7.1 77 1.9 SSW 24 39 13 21 1010.6 1010.7 0.0
28/11:00am 10.7 6.2 7.0 78 1.8 SSW 20 35 11 19 1010.8 1010.9 0.0
28/10:30am 10.3 5.0 6.8 79 1.7 SSW 24 39 13 21 1010.8 1010.9 0.0
28/10:00am 10.1 5.5 6.6 79 1.7 SSW 20 32 11 17 1010.6 1010.7 0.0
28/09:30am 9.8 5.2 6.5 80 1.6 SSW 20 39 11 21 1010.4 1010.5 0.0
28/09:00am 9.4 4.8 6.7 83 1.3 SSW 20 32 11 17 1010.2 1010.3 6.8
28/08:30am 9.2 4.6 6.3 82 1.4 SSW 20 35 11 19 1010.2 1010.3 6.8
28/08:00am 8.7 3.6 6.2 84 1.2 SSW 22 41 12 22 1009.7 1009.8 6.8
28/07:32am 8.5 2.3 6.0 84 1.2 SSW 28 46 15 25 1009.2 1009.3 6.8
28/07:30am 8.5 1.9 6.0 84 1.2 SSW 30 46 16 25 1009.2 1009.3 6.8
28/07:29am 8.5 2.3 6.0 84 1.2 SSW 28 46 15 25 1009.2 1009.3 6.8
28/07:00am 8.6 2.7 5.9 83 1.3 SSW 26 39 14 21 1008.9 1009.0 6.8
28/06:30am 8.5 1.9 6.0 84 1.2 SW 30 48 16 26 1008.3 1008.4 6.8
28/06:15am 8.5 2.2 5.8 83 1.2 SW 28 52 15 28 1008.1 1008.2 6.8
28/06:00am 8.5 3.0 6.0 84 1.2 SW 24 39 13 21 1008.1 1008.2 6.8
28/05:32am 8.5 2.3 6.0 84 1.2 SW 28 50 15 27 1007.9 1008.0 6.8
28/05:30am 8.5 2.6 5.8 83 1.2 SW 26 50 14 27 1007.7 1007.8 6.8
28/05:03am 8.5 2.3 6.0 84 1.2 SW 28 48 15 26 1007.3 1007.4 6.8
28/05:00am 8.5 2.6 6.0 84 1.2 SW 26 48 14 26 1007.3 1007.4 6.8
28/04:30am 8.4 3.3 5.9 84 1.2 SW 22 37 12 20 1007.0 1007.1 6.8
28/04:00am 8.3 3.1 5.6 83 1.2 SW 22 35 12 19 1006.8 1006.9 6.8
28/03:30am 8.4 2.9 5.9 84 1.2 SW 24 41 13 22 1006.9 1007.0 6.8
28/03:00am 8.4 2.9 5.7 83 1.2 SW 24 44 13 24 1006.7 1006.8 6.8
28/02:30am 8.5 3.0 5.8 83 1.2 SSW 24 41 13 22 1006.6 1006.7 6.8
28/02:08am 8.6 2.4 6.1 84 1.2 SW 28 52 15 28 1006.4 1006.5 6.8
28/02:00am 8.7 3.2 6.0 83 1.3 SW 24 44 13 24 1006.3 1006.4 6.8
28/01:30am 8.9 3.8 6.2 83 1.3 SW 22 37 12 20 1006.3 1006.4 6.8
28/01:00am 9.1 3.7 6.4 83 1.3 SW 24 44 13 24 1006.2 1006.3 6.8
28/12:30am 9.3 3.9 6.4 82 1.4 SW 24 44 13 24 1006.0 1006.1 6.8
28/12:00am 9.3 3.2 6.6 83 1.3 SW 28 48 15 26 1005.7 1005.8 6.8
 
Date/Time
WST
Temp
°C
App
Temp
°C
Dew
Point
°C
Rel
Hum
%
Delta-T
°C
Wind Press
QNH
hPa
Press
MSL
hPa
Rain since
9am
mm
Dir  Spd
km/h
Gust
km/h
Spd
kts
Gust
kts
27/11:54pm 9.3 3.2 6.6 83 1.3 SW 28 50 15 27 1005.6 1005.7 6.8
27/11:30pm 9.4 4.8 6.7 83 1.3 SW 20 46 11 25 1005.5 1005.6 6.8
27/11:00pm 9.5 4.6 6.9 84 1.2 SW 22 37 12 20 1005.3 1005.4 6.8
27/10:30pm 9.4 4.5 6.7 83 1.3 SW 22 46 12 25 1005.3 1005.4 6.8
27/10:00pm 9.3 5.3 6.6 83 1.3 WSW 17 37 9 20 1005.4 1005.5 6.6
27/09:30pm 9.3 3.9 6.4 82 1.4 SW 24 39 13 21 1005.4 1005.5 6.6
27/09:00pm 9.4 4.1 6.8 84 1.2 SW 24 43 13 23 1005.2 1005.3 6.6
27/08:30pm 9.6 4.0 7.2 85 1.2 SW 26 41 14 22 1004.7 1004.8 6.6
27/08:08pm 9.9 4.1 7.8 87 1.0 SW 28 46 15 25 1004.3 1004.3 6.6
27/08:00pm 10.0 5.4 8.1 88 0.9 SW 22 41 12 22 1004.1 1004.1 6.6
27/07:30pm 10.4 5.5 8.5 88 0.9 SW 24 50 13 27 1003.5 1003.6 6.6
27/07:00pm 10.5 7.0 8.6 88 1.0 WSW 17 48 9 26 1003.0 1003.1 5.8
27/06:30pm 10.4 5.1 8.5 88 0.9 SW 26 44 14 24 1002.8 1002.9 5.8
27/06:17pm 10.7 5.2 9.1 90 0.8 WSW 28 52 15 28 1002.4 1002.5 5.8
27/06:00pm 10.7 7.3 9.1 90 0.8 WSW 17 35 9 19 1002.3 1002.4 5.6
27/05:30pm 10.7 6.4 9.5 92 0.6 W 22 43 12 23 1001.7 1001.8 5.2
27/05:00pm 10.5 6.5 9.1 91 0.7 W 20 37 11 20 1001.3 1001.3 5.2
27/04:30pm 10.6 5.4 8.9 89 0.9 W 26 54 14 29 1001.1 1001.1 4.6
27/04:00pm 10.6 4.6 8.5 87 1.1 WNW 30 54 16 29 1000.7 1000.7 4.2
27/03:34pm 10.6 4.9 8.5 87 1.0 W 28 46 15 25 1000.7 1000.7 4.0
27/03:30pm 10.7 5.4 8.6 87 1.0 W 26 46 14 25 1000.6 1000.6 4.0
27/03:00pm 11.2 5.4 8.1 81 1.5 W 28 56 15 30 1000.6 1000.6 3.6
27/02:35pm 11.0 5.2 8.1 82 1.4 W 28 54 15 29 1000.5 1000.5 3.6
27/02:30pm 11.0 6.1 8.4 84 1.3 W 24 48 13 26 1000.6 1000.6 3.6
27/02:02pm 11.4 5.7 8.4 82 1.5 WNW 28 54 15 29 1000.8 1000.8 3.2
27/02:00pm 11.4 6.1 8.6 83 1.4 WNW 26 50 14 27 1000.7 1000.7 3.2
27/01:40pm 11.6 5.7 7.5 76 2.0 W 28 52 15 28 1001.1 1001.1 2.4
27/01:30pm 12.6 7.4 7.3 70 2.6 WNW 24 52 13 28 1000.9 1000.9 2.4
27/01:01pm 11.3 5.6 8.5 83 1.4 WNW 28 54 15 29 1001.1 1001.1 2.4
27/01:00pm 11.2 5.9 8.4 83 1.4 WNW 26 54 14 29 1001.0 1001.0 2.4
27/12:32pm 12.2 6.3 7.3 72 2.4 W 28 52 15 28 1001.3 1001.3 2.0
27/12:30pm 11.9 6.2 6.8 71 2.5 W 26 44 14 24 1001.2 1001.2 2.0
27/12:00pm 11.2 6.1 7.7 79 1.7 W 24 43 13 23 1001.5 1001.6 2.0
27/11:30am 11.9 8.0 9.6 86 1.2 W 20 35 11 19 1001.0 1001.0 1.8

Other Formats:

Comma delimited format used in spreadsheet applications
http://www.bom.gov.au/fwo/IDW60801/IDW60801.94620.axf

JavaScript Object Notation format (JSON) in row-major order
http://www.bom.gov.au/fwo/IDW60801/IDW60801.94620.json